Charlotte, North Carolina
Current Conditions -  °F | °C
As of 2:52 PM on Friday 21 Nov 2014 (Local Time) from KCLT Reporting Station
Few Clouds Few Clouds  
Wind Chill: 58°   Ceiling: Unl
Heat Index: 58°   Visibility: 10mi
Dew Point: 10°   Wind: 8mph
Humidity: 15%   Direction: 10°N
Pressure: 30.38"   Gusts: NA
Location:  35.22°N, 80.84°W
Report Text: KCLT 211952Z 01007KT 10SM FEW250 14/M12 A3038 RMK AO2 SLP289 T01441122
Loading
Personal Weather Stations






























Interactive Weather Map New forecast layout! Learn more

10-Day Weather Forecast

Advertisements
Track Severe Weather on mobile